TimeMDT,TemperatureF,Dew PointF,Humidity,Sea Level PressureIn,VisibilityMPH,Wind Direction,Wind SpeedMPH,Gust SpeedMPH,PrecipitationIn,Events,Conditions,WindDirDegrees,DateUTC
12:53 AM,37.0,30.0,76,30.12,10.0,Calm,Calm,-,N/A,,Partly Cloudy,0,2011-10-13 06:53:00
1:53 AM,35.1,30.0,82,30.13,10.0,North,3.5,-,N/A,,Scattered Clouds,360,2011-10-13 07:53:00
2:53 AM,35.1,30.0,82,30.13,10.0,North,3.5,-,N/A,,Partly Cloudy,360,2011-10-13 08:53:00
3:53 AM,35.1,28.9,78,30.12,10.0,Calm,Calm,-,N/A,,Clear,0,2011-10-13 09:53:00
4:53 AM,32.0,28.0,85,30.12,10.0,Calm,Calm,-,N/A,,Scattered Clouds,0,2011-10-13 10:53:00
5:53 AM,30.2,28.4,93,30.15,10.0,Calm,Calm,-,N/A,,Clear,0,2011-10-13 11:53:00
6:53 AM,30.9,28.0,89,30.14,10.0,SSE,4.6,-,N/A,,Clear,160,2011-10-13 12:53:00
7:53 AM,32.0,28.0,85,30.14,10.0,SE,4.6,-,N/A,,Overcast,140,2011-10-13 13:53:00
8:53 AM,35.1,28.9,78,30.14,10.0,Calm,Calm,-,N/A,,Overcast,0,2011-10-13 14:53:00
9:53 AM,43.0,30.0,60,30.13,10.0,NNW,4.6,-,N/A,,Overcast,340,2011-10-13 15:53:00
10:53 AM,45.0,26.1,48,30.11,10.0,NW,4.6,-,N/A,,Overcast,310,2011-10-13 16:53:00
11:53 AM,46.0,25.0,44,30.11,10.0,NNW,5.8,-,N/A,,Overcast,330,2011-10-13 17:53:00
12:53 PM,46.9,26.1,44,30.10,10.0,NW,4.6,-,N/A,,Overcast,310,2011-10-13 18:53:00
1:53 PM,48.0,26.1,42,30.08,10.0,NW,6.9,-,N/A,,Overcast,320,2011-10-13 19:53:00
2:53 PM,48.9,25.0,39,30.06,10.0,NW,8.1,-,N/A,,Overcast,320,2011-10-13 20:53:00
3:53 PM,50.0,25.0,38,30.04,10.0,WNW,9.2,-,N/A,,Overcast,290,2011-10-13 21:53:00
4:53 PM,50.0,23.0,35,30.06,10.0,WNW,10.4,-,N/A,,Overcast,300,2011-10-13 22:53:00
5:53 PM,50.0,21.2,32,30.06,10.0,West,12.7,23.0,N/A,,Overcast,270,2011-10-13 23:53:00
6:53 PM,48.0,24.1,39,30.06,10.0,NNW,5.8,-,N/A,,Overcast,340,2011-10-14 00:53:00
7:53 PM,46.9,23.0,39,30.08,10.0,NNW,8.1,-,N/A,,Overcast,330,2011-10-14 01:53:00
8:53 PM,44.1,24.1,45,30.08,10.0,WNW,4.6,-,N/A,,Overcast,300,2011-10-14 02:53:00
9:53 PM,43.0,27.0,53,30.08,10.0,Calm,Calm,-,N/A,,Overcast,0,2011-10-14 03:53:00
10:53 PM,42.1,28.0,58,30.09,10.0,WNW,5.8,-,N/A,,Overcast,300,2011-10-14 04:53:00
11:53 PM,39.2,33.8,81,30.12,10.0,NW,4.6,-,N/A,Rain,Light Rain,320,2011-10-14 05:53:00